Time;durP1;ratioP1;P1;durP2;ratioP2;P2;SDS_P1;SDS_P2;PMS_P1;PMS_P2;Temp;Humidity;BMP_temperature;BMP_pressure;BME280_temperature;BME280_humidity;BME280_pressure;Samples;Min_cycle;Max_cycle;Signal;HPM_P1;HPM_P2
2023/05/17 00:00:46;;;;;;;10.18;3.80;;;;;;;6.57;100.00;102452.47;5032600;28;20479;-76
2023/05/17 00:03:12;;;;;;;10.93;4.25;;;;;;;6.54;100.00;102447.22;5040110;28;20068;-76
2023/05/17 00:05:37;;;;;;;15.55;4.50;;;;;;;6.57;100.00;102461.94;5033964;28;20044;-76
2023/05/17 00:08:02;;;;;;;14.90;4.57;;;;;;;6.54;100.00;102467.97;5035534;28;20040;-75
2023/05/17 00:10:28;;;;;;;7.75;4.43;;;;;;;6.53;100.00;102462.72;5045829;28;20045;-76
2023/05/17 00:12:53;;;;;;;9.60;4.97;;;;;;;6.51;100.00;102464.44;5037622;28;20036;-76
2023/05/17 00:15:18;;;;;;;11.88;4.80;;;;;;;6.48;100.00;102461.78;5039967;28;20461;-75
2023/05/17 00:17:43;;;;;;;16.60;5.43;;;;;;;6.44;100.00;102457.38;5045153;28;20043;-76
2023/05/17 00:20:09;;;;;;;11.73;5.22;;;;;;;6.44;100.00;102471.22;5031685;28;20037;-75
2023/05/17 00:22:35;;;;;;;10.38;4.60;;;;;;;6.40;100.00;102469.38;5033626;28;20106;-76
2023/05/17 00:25:00;;;;;;;11.48;4.90;;;;;;;6.38;100.00;102467.63;5036463;28;20056;-76
2023/05/17 00:27:26;;;;;;;11.18;4.68;;;;;;;6.35;100.00;102460.69;5039167;28;20030;-75
2023/05/17 00:29:51;;;;;;;14.90;5.18;;;;;;;6.32;100.00;102464.06;5032608;28;20545;-76
2023/05/17 00:32:16;;;;;;;13.18;5.28;;;;;;;6.26;100.00;102457.91;5035102;28;20033;-76
2023/05/17 00:34:41;;;;;;;12.90;4.65;;;;;;;6.23;100.00;102461.28;5032119;28;20029;-76
2023/05/17 00:37:07;;;;;;;11.55;4.60;;;;;;;6.21;100.00;102459.50;5036884;28;20025;-76
2023/05/17 00:39:32;;;;;;;11.50;5.00;;;;;;;6.21;100.00;102459.50;5039220;28;20025;-76
2023/05/17 00:41:59;;;;;;;9.10;4.53;;;;;;;6.16;100.00;102464.59;5045200;28;20029;-75
2023/05/17 00:44:25;;;;;;;12.85;5.20;;;;;;;6.04;100.00;102443.63;5047855;28;20534;-76
2023/05/17 00:46:50;;;;;;;11.30;4.90;;;;;;;6.11;100.00;102463.63;5038868;28;20029;-75
2023/05/17 00:49:16;;;;;;;11.93;5.32;;;;;;;6.10;100.00;102456.69;5038706;28;20101;-76
2023/05/17 00:51:41;;;;;;;12.45;4.57;;;;;;;6.05;100.00;102459.22;5035577;28;20029;-76
2023/05/17 00:54:06;;;;;;;17.33;5.05;;;;;;;5.99;100.00;102456.50;5034530;28;20079;-75
2023/05/17 00:56:32;;;;;;;14.30;5.53;;;;;;;5.83;100.00;102444.88;5030209;28;20033;-75
2023/05/17 00:58:57;;;;;;;15.00;5.47;;;;;;;5.90;100.00;102468.31;5031249;28;20055;-75
2023/05/17 01:01:25;;;;;;;13.52;4.80;;;;;;;5.89;100.00;102469.19;5036585;28;20025;-75
2023/05/17 01:03:51;;;;;;;17.10;5.35;;;;;;;5.84;100.00;102461.28;5032657;28;20039;-76
2023/05/17 01:06:16;;;;;;;8.82;4.68;;;;;;;5.75;100.00;102455.91;5036856;28;20025;-76
2023/05/17 01:08:42;;;;;;;10.55;5.43;;;;;;;5.75;100.00;102458.50;5049682;28;20028;-76
2023/05/17 01:11:44;;;;;;;10.50;5.00;;;;;;;5.71;100.00;102460.13;5028427;28;20033;-75
2023/05/17 01:14:56;;;;;;;13.38;4.65;;;;;;;5.73;100.00;102468.81;5041298;28;20090;-75
2023/05/17 01:17:32;;;;;;;16.00;5.65;;;;;;;5.73;100.00;102462.78;5039674;28;20036;-75
2023/05/17 01:20:16;;;;;;;10.20;5.20;;;;;;;5.63;100.00;102456.53;5018137;28;20040;-75
2023/05/17 01:22:57;;;;;;;9.25;5.20;;;;;;;5.66;100.00;102461.78;5033079;28;20119;-75
2023/05/17 01:25:41;;;;;;;13.90;5.40;;;;;;;5.64;100.00;102456.53;5030322;28;20026;-76
2023/05/17 01:28:08;;;;;;;12.98;4.68;;;;;;;5.56;100.00;102449.47;5040266;28;20067;-76
2023/05/17 01:30:34;;;;;;;12.73;5.35;;;;;;;5.54;100.00;102445.97;5034239;28;20060;-75
2023/05/17 01:33:01;;;;;;;8.80;4.95;;;;;;;5.54;100.00;102467.53;5035619;28;20025;-75
2023/05/17 01:35:26;;;;;;;13.23;5.25;;;;;;;5.51;100.00;102467.44;5036419;28;20030;-75
2023/05/17 01:37:52;;;;;;;12.07;5.15;;;;;;;5.52;100.00;102470.91;5035775;28;20081;-75
2023/05/17 01:40:19;;;;;;;11.32;4.85;;;;;;;5.48;100.00;102461.34;5038363;28;20026;-75
2023/05/17 01:42:49;;;;;;;14.00;4.57;;;;;;;5.52;100.00;102468.31;5033249;28;20025;-76
2023/05/17 01:45:18;;;;;;;10.90;5.00;;;;;;;5.49;100.00;102455.31;5029475;28;20048;-76
2023/05/17 01:48:02;;;;;;;9.90;5.20;;;;;;;5.50;100.00;102467.44;5032667;28;20168;-75
2023/05/17 01:50:29;;;;;;;;;;;;;;;5.48;100.00;102469.97;5037166;28;20029;-75
2023/05/17 01:53:00;;;;;;;13.93;5.45;;;;;;;5.45;100.00;102450.91;5043709;28;20310;-76
2023/05/17 01:55:48;;;;;;;13.82;5.63;;;;;;;5.49;100.00;102463.06;5035801;28;20040;-75
2023/05/17 01:58:14;;;;;;;14.30;5.25;;;;;;;5.48;100.00;102463.91;5032025;28;20033;-76
2023/05/17 02:00:42;;;;;;;11.13;5.63;;;;;;;5.52;100.00;102460.56;5030663;28;20026;-75
2023/05/17 02:03:13;;;;;;;12.95;5.65;;;;;;;5.51;100.00;102467.44;5032486;28;20029;-75
2023/05/17 02:05:38;;;;;;;14.13;5.47;;;;;;;5.50;100.00;102462.25;5030181;28;20072;-76
2023/05/17 02:08:03;;;;;;;11.07;5.43;;;;;;;5.45;100.00;102456.97;5031014;28;20473;-76
2023/05/17 02:10:29;;;;;;;11.68;5.75;;;;;;;5.40;100.00;102456.00;5040927;28;20033;-76
2023/05/17 02:12:54;;;;;;;20.52;6.22;;;;;;;5.44;100.00;102468.16;5040545;28;20488;-76
2023/05/17 02:15:19;;;;;;;12.15;5.45;;;;;;;5.45;100.00;102463.84;5042389;28;20029;-76
2023/05/17 02:17:45;;;;;;;12.82;5.97;;;;;;;5.41;100.00;102468.06;5031263;28;20040;-76
2023/05/17 02:20:10;;;;;;;13.05;5.85;;;;;;;5.39;100.00;102472.31;5038650;28;20025;-76
2023/05/17 02:22:36;;;;;;;14.82;6.13;;;;;;;5.34;100.00;102469.66;5037652;28;20378;-75
2023/05/17 02:25:01;;;;;;;11.98;5.72;;;;;;;5.34;100.00;102472.22;5030138;28;20033;-75
2023/05/17 02:27:27;;;;;;;13.48;5.43;;;;;;;5.27;100.00;102457.41;5041944;28;20079;-76
2023/05/17 02:29:52;;;;;;;16.13;5.63;;;;;;;5.30;100.00;102462.66;5032993;28;20018;-76
2023/05/17 02:32:17;;;;;;;13.50;5.90;;;;;;;5.27;100.00;102453.94;5037629;28;20465;-76
2023/05/17 02:34:42;;;;;;;10.73;5.75;;;;;;;5.27;100.00;102462.59;5032570;28;20038;-76
2023/05/17 02:37:08;;;;;;;12.07;4.82;;;;;;;5.30;100.00;102470.41;5038415;28;20053;-76
2023/05/17 02:39:33;;;;;;;21.08;5.88;;;;;;;5.24;100.00;102462.50;5044106;28;21350;-76
2023/05/17 02:41:58;;;;;;;11.82;5.38;;;;;;;5.19;100.00;102458.06;5048211;28;20022;-76
2023/05/17 02:44:23;;;;;;;11.82;5.03;;;;;;;5.19;100.00;102464.09;5045091;28;20508;-75
2023/05/17 02:46:49;;;;;;;17.77;5.20;;;;;;;5.05;100.00;102439.63;5044404;28;20057;-76
2023/05/17 02:49:14;;;;;;;17.65;6.07;;;;;;;5.25;100.00;102477.16;5048494;28;20036;-76
2023/05/17 02:51:39;;;;;;;16.88;6.40;;;;;;;5.27;100.00;102472.06;5046689;28;20091;-76
2023/05/17 02:54:05;;;;;;;15.68;5.57;;;;;;;5.38;100.00;102475.75;5037598;28;20031;-76
2023/05/17 02:56:30;;;;;;;12.50;5.55;;;;;;;5.50;100.00;102490.72;5043844;28;20033;-76
2023/05/17 02:58:56;;;;;;;14.80;5.25;;;;;;;5.52;100.00;102484.72;5034919;28;20037;-76
2023/05/17 03:01:22;;;;;;;13.93;5.70;;;;;;;5.66;100.00;102485.06;5054174;28;20024;-76
2023/05/17 03:03:47;;;;;;;12.43;5.80;;;;;;;5.53;100.00;102454.56;5047090;28;20556;-75
2023/05/17 03:06:13;;;;;;;11.65;6.10;;;;;;;5.82;100.00;102483.66;5047717;28;20029;-75
2023/05/17 03:08:39;;;;;;;12.18;6.35;;;;;;;5.76;100.00;102470.63;5040112;28;20436;-75
2023/05/17 03:11:04;;;;;;;13.50;6.00;;;;;;;6.00;100.00;102498.78;5030581;28;20029;-75
2023/05/17 03:13:30;;;;;;;16.00;6.38;;;;;;;6.01;100.00;102496.22;5037195;28;20448;-76
2023/05/17 03:15:55;;;;;;;18.83;6.55;;;;;;;6.06;100.00;102484.25;5032732;28;20022;-76
2023/05/17 03:18:20;;;;;;;16.88;6.13;;;;;;;6.13;100.00;102490.44;5045834;28;20044;-75
2023/05/17 03:20:46;;;;;;;13.32;5.78;;;;;;;6.12;100.00;102485.25;5035879;28;20026;-75
2023/05/17 03:23:11;;;;;;;14.15;6.38;;;;;;;6.26;100.00;102505.38;5034517;28;20064;-75
2023/05/17 03:25:36;;;;;;;13.85;6.40;;;;;;;6.33;100.00;102494.31;5033160;28;20041;-76
2023/05/17 03:28:02;;;;;;;16.20;5.85;;;;;;;6.33;100.00;102491.72;5042595;28;20473;-76
2023/05/17 03:30:27;;;;;;;15.63;5.93;;;;;;;6.38;100.00;102498.72;5038043;28;20064;-76
2023/05/17 03:32:53;;;;;;;21.20;6.53;;;;;;;6.39;100.00;102497.88;5046183;28;20029;-75
2023/05/17 03:35:18;;;;;;;13.55;6.50;;;;;;;6.43;100.00;102502.25;5048329;28;20471;-76
2023/05/17 03:37:43;;;;;;;14.23;6.53;;;;;;;6.49;100.00;102510.16;5046212;28;20081;-76
2023/05/17 03:40:09;;;;;;;19.58;6.60;;;;;;;6.53;100.00;102501.59;5037289;28;20044;-76
2023/05/17 03:42:35;;;;;;;15.40;7.10;;;;;;;6.60;100.00;102511.25;5045925;28;20029;-76
2023/05/17 03:45:01;;;;;;;14.90;6.07;;;;;;;6.64;100.00;102515.66;5034343;28;20095;-76
2023/05/17 03:47:26;;;;;;;24.63;7.55;;;;;;;6.67;100.00;102515.72;5043169;28;20025;-76
2023/05/17 03:49:51;;;;;;;16.90;7.00;;;;;;;6.70;100.00;102512.28;5046366;28;20025;-75
2023/05/17 03:52:17;;;;;;;18.08;6.60;;;;;;;6.72;100.00;102511.47;5046534;28;20025;-75
2023/05/17 03:54:42;;;;;;;19.67;7.38;;;;;;;6.77;100.00;102512.47;5041979;28;20032;-76
2023/05/17 03:57:07;;;;;;;19.55;7.38;;;;;;;6.78;100.00;102518.50;5033758;28;20064;-75
2023/05/17 03:59:33;;;;;;;18.48;7.18;;;;;;;6.74;100.00;102525.34;5033840;28;20021;-75
2023/05/17 04:01:58;;;;;;;18.52;6.80;;;;;;;6.77;100.00;102528.00;5031702;28;20030;-76
2023/05/17 04:04:23;;;;;;;17.73;7.07;;;;;;;6.76;100.00;102527.97;5035175;28;20037;-75
2023/05/17 04:06:49;;;;;;;21.52;7.25;;;;;;;6.73;100.00;102528.78;5040646;28;20175;-76
2023/05/17 04:09:14;;;;;;;16.73;7.40;;;;;;;6.64;100.00;102513.06;5041935;28;20017;-76
2023/05/17 04:11:41;;;;;;;16.92;7.20;;;;;;;6.68;100.00;102525.22;5035230;28;20466;-76
2023/05/17 04:14:06;;;;;;;13.00;7.32;;;;;;;6.59;100.00;102521.59;5041843;28;20083;-76
2023/05/17 04:16:32;;;;;;;19.55;8.00;;;;;;;6.51;100.00;102518.84;5034228;28;20100;-76
2023/05/17 04:18:58;;;;;;;19.73;7.53;;;;;;;6.51;100.00;102535.28;5034414;28;20385;-76
2023/05/17 04:21:24;;;;;;;18.50;8.48;;;;;;;6.44;100.00;102533.41;5033483;28;20060;-75
2023/05/17 04:23:49;;;;;;;21.02;8.82;;;;;;;6.37;100.00;102521.13;5044444;28;20033;-76
2023/05/17 04:26:14;;;;;;;24.35;8.10;;;;;;;6.44;100.00;102537.69;5043999;28;20057;-76
2023/05/17 04:28:40;;;;;;;19.95;8.15;;;;;;;6.42;100.00;102540.25;5039800;28;20029;-76
2023/05/17 04:31:08;;;;;;;19.58;8.57;;;;;;;6.38;100.00;102533.28;5039502;28;20416;-76
2023/05/17 04:33:34;;;;;;;20.08;8.27;;;;;;;6.43;100.00;102541.13;5039969;28;20029;-76
2023/05/17 04:35:59;;;;;;;17.67;8.27;;;;;;;6.42;100.00;102542.84;5031184;28;20029;-75
2023/05/17 04:38:25;;;;;;;19.15;8.52;;;;;;;6.46;100.00;102556.72;5039901;28;20485;-76
2023/05/17 04:40:50;;;;;;;18.00;8.32;;;;;;;6.48;100.00;102553.34;5031274;28;20037;-75
2023/05/17 04:43:15;;;;;;;21.65;9.20;;;;;;;6.44;100.00;102553.22;5042414;28;20021;-76
2023/05/17 04:45:41;;;;;;;18.27;9.52;;;;;;;6.52;100.00;102556.88;5040167;28;20049;-76
2023/05/17 04:48:07;;;;;;;24.02;9.25;;;;;;;6.55;100.00;102560.41;5048220;28;20480;-76
2023/05/17 04:50:32;;;;;;;16.92;8.82;;;;;;;6.55;100.00;102562.13;5039684;28;20503;-75
2023/05/17 04:52:57;;;;;;;20.67;8.80;;;;;;;6.54;100.00;102562.97;5032344;28;20107;-75
2023/05/17 04:55:23;;;;;;;22.00;10.77;;;;;;;6.66;100.00;102572.69;5039951;28;20435;-75
2023/05/17 04:57:48;;;;;;;18.40;8.68;;;;;;;6.71;100.00;102576.25;5042383;28;20029;-75
2023/05/17 05:00:14;;;;;;;19.58;8.55;;;;;;;6.75;100.00;102583.25;5037600;28;20034;-76
2023/05/17 05:02:40;;;;;;;20.20;9.57;;;;;;;6.78;100.00;102584.19;5033271;28;20029;-76
2023/05/17 05:05:07;;;;;;;23.90;9.93;;;;;;;6.83;100.00;102586.84;5033393;28;20032;-75
2023/05/17 05:07:32;;;;;;;23.77;9.80;;;;;;;6.90;100.00;102578.38;5041204;28;20621;-76
2023/05/17 05:09:57;;;;;;;22.15;9.18;;;;;;;6.95;100.00;102586.22;5030297;28;20109;-76
2023/05/17 05:12:23;;;;;;;25.77;9.88;;;;;;;7.01;100.00;102591.53;5023432;28;20033;-76
2023/05/17 05:14:49;;;;;;;19.40;9.48;;;;;;;7.02;100.00;102585.50;5019280;28;20021;-75
2023/05/17 05:17:15;;;;;;;20.67;9.35;;;;;;;7.11;100.00;102590.88;5039309;28;20764;-75
2023/05/17 05:19:40;;;;;;;20.60;9.65;;;;;;;7.19;100.00;102594.50;5025604;28;20033;-74
2023/05/17 05:22:05;;;;;;;20.00;9.52;;;;;;;7.22;100.00;102597.13;5028840;28;20072;-75
2023/05/17 05:24:30;;;;;;;27.20;10.65;;;;;;;7.24;100.00;102602.34;5029544;28;20030;-75
2023/05/17 05:26:56;;;;;;;20.83;9.80;;;;;;;7.22;100.00;102610.09;5033966;28;20040;-75
2023/05/17 05:29:21;;;;;;;18.83;9.35;;;;;;;7.08;100.00;102583.03;5034072;28;20457;-75
2023/05/17 05:31:46;;;;;;;27.30;9.85;;;;;;;7.25;100.00;102597.16;5031052;28;20029;-74
2023/05/17 05:34:12;;;;;;;21.90;10.18;;;;;;;7.41;100.00;102606.09;5029824;28;20030;-75
2023/05/17 05:36:37;;;;;;;23.70;9.75;;;;;;;7.56;100.00;102617.63;5039945;28;20485;-74
2023/05/17 05:39:02;;;;;;;23.30;9.57;;;;;;;7.63;100.00;102612.56;5030764;28;20488;-75
2023/05/17 05:41:28;;;;;;;27.58;10.20;;;;;;;7.76;100.00;102618.84;5036297;28;20091;-74
2023/05/17 05:43:54;;;;;;;22.33;9.40;;;;;;;7.84;100.00;102617.22;5042276;28;20037;-77
2023/05/17 05:46:19;;;;;;;20.02;9.73;;;;;;;7.96;100.00;102612.22;5033372;28;20032;-74
2023/05/17 05:48:44;;;;;;;25.25;8.52;;;;;;;8.02;100.00;102595.88;5041236;28;20033;-75
2023/05/17 05:51:10;;;;;;;21.90;9.88;;;;;;;8.27;100.00;102617.88;5036511;28;20444;-75
2023/05/17 05:53:35;;;;;;;24.73;9.75;;;;;;;8.41;100.00;102615.53;5037527;28;20029;-75
2023/05/17 05:56:01;;;;;;;22.38;8.80;;;;;;;8.59;100.00;102620.09;5029149;28;20029;-75
2023/05/17 05:58:28;;;;;;;18.35;8.35;;;;;;;8.77;100.00;102629.88;5033850;28;20163;-75
2023/05/17 06:00:53;;;;;;;21.73;8.07;;;;;;;9.03;100.00;102624.97;5033269;28;20033;-75
2023/05/17 06:03:18;;;;;;;23.10;7.78;;;;;;;9.26;100.00;102633.03;5036501;28;20017;-74
2023/05/17 06:05:44;;;;;;;25.85;7.75;;;;;;;9.29;100.00;102628.72;5033663;28;20037;-74
2023/05/17 06:08:09;;;;;;;23.92;7.85;;;;;;;9.26;100.00;102631.28;5030309;28;20072;-75
2023/05/17 06:10:34;;;;;;;18.02;7.10;;;;;;;9.27;100.00;102627.81;5032459;28;20427;-75
2023/05/17 06:13:00;;;;;;;20.63;7.30;;;;;;;9.26;100.00;102630.44;5033046;28;20029;-74
2023/05/17 06:15:26;;;;;;;19.02;6.65;;;;;;;9.32;100.00;102646.13;5029725;28;20483;-75
2023/05/17 06:17:51;;;;;;;16.58;6.63;;;;;;;9.42;100.00;102653.16;5034897;28;20029;-74
2023/05/17 06:20:17;;;;;;;21.70;5.95;;;;;;;9.36;100.00;102642.69;5038558;28;20024;-72
2023/05/17 06:22:43;;;;;;;12.93;5.03;;;;;;;9.46;100.00;102656.66;5046025;28;20034;-76
2023/05/17 06:25:10;;;;;;;18.10;5.88;;;;;;;9.43;100.00;102646.22;5044067;28;20151;-75
2023/05/17 06:27:36;;;;;;;18.00;5.43;;;;;;;9.51;100.00;102653.22;5032725;28;20957;-76
2023/05/17 06:30:03;;;;;;;17.00;5.38;;;;;;;9.56;100.00;102661.97;5038064;28;20119;-76
2023/05/17 06:32:28;;;;;;;17.10;5.45;;;;;;;9.67;100.00;102662.06;5033287;28;20036;-75
2023/05/17 06:34:55;;;;;;;19.08;4.55;;;;;;;9.71;100.00;102657.75;5033222;28;20029;-75
2023/05/17 06:37:22;;;;;;;17.60;4.55;;;;;;;9.76;100.00;102664.75;5035000;28;20481;-72
2023/05/17 06:39:50;;;;;;;16.88;4.38;;;;;;;9.74;100.00;102653.44;5032278;28;20110;-75
2023/05/17 06:42:15;;;;;;;19.77;4.47;;;;;;;9.70;100.00;102653.41;5034720;28;20026;-75
2023/05/17 06:44:41;;;;;;;15.43;4.07;;;;;;;9.83;100.00;102669.16;5038792;28;20091;-75
2023/05/17 06:47:06;;;;;;;12.95;3.90;;;;;;;9.81;100.00;102662.22;5035727;28;20030;-74
2023/05/17 06:49:31;;;;;;;13.63;3.80;;;;;;;9.93;100.00;102658.81;5033402;28;20040;-76
2023/05/17 06:52:01;;;;;;;14.07;4.18;;;;;;;10.15;100.00;102665.06;5034404;28;20232;-75
2023/05/17 06:54:27;;;;;;;14.88;3.58;;;;;;;10.16;100.00;102661.59;5032206;28;20108;-74
2023/05/17 06:56:52;;;;;;;15.45;3.00;;;;;;;10.15;100.00;102671.16;5035520;28;20147;-75
2023/05/17 06:59:17;;;;;;;14.43;2.85;;;;;;;9.99;100.00;102671.91;5036264;28;20072;-74
2023/05/17 07:01:42;;;;;;;17.48;3.08;;;;;;;9.83;100.00;102671.75;5037271;28;20040;-75
2023/05/17 07:04:08;;;;;;;10.63;2.58;;;;;;;9.75;100.00;102677.78;5034739;28;20100;-75
2023/05/17 07:06:33;;;;;;;15.52;2.78;;;;;;;9.67;100.00;102671.59;5034612;28;20148;-74
2023/05/17 07:08:58;;;;;;;15.02;2.95;;;;;;;9.66;98.72;102681.16;5048534;28;20033;-75
2023/05/17 07:11:24;;;;;;;12.63;2.75;;;;;;;9.68;100.00;102661.22;5028990;28;20072;-74
2023/05/17 07:13:49;;;;;;;11.48;2.70;;;;;;;10.02;96.78;102690.16;5035698;28;20562;-74
2023/05/17 07:16:14;;;;;;;11.85;2.85;;;;;;;10.14;96.13;102681.59;5040646;28;20080;-74
2023/05/17 07:18:40;;;;;;;20.88;3.22;;;;;;;10.20;96.17;102671.16;5041782;28;20492;-75
2023/05/17 07:21:05;;;;;;;13.23;2.78;;;;;;;10.35;92.92;102671.31;5034915;28;20021;-74
2023/05/17 07:23:30;;;;;;;13.65;2.88;;;;;;;10.42;91.00;102678.31;5036894;28;20036;-75
2023/05/17 07:25:56;;;;;;;11.68;2.70;;;;;;;10.58;92.49;102689.72;5036327;28;20021;-75
2023/05/17 07:28:21;;;;;;;13.35;3.25;;;;;;;10.42;84.13;102678.31;5036344;28;20025;-75
2023/05/17 07:30:46;;;;;;;14.90;3.10;;;;;;;10.42;80.65;102693.09;5034735;28;20033;-74
2023/05/17 07:33:11;;;;;;;11.27;2.67;;;;;;;10.46;85.52;102684.41;5035637;28;20022;-75
2023/05/17 07:35:37;;;;;;;13.77;2.85;;;;;;;10.58;83.95;102699.28;5034770;28;20384;-75
2023/05/17 07:38:02;;;;;;;11.68;2.80;;;;;;;10.56;82.53;102699.25;5039239;28;20060;-74
2023/05/17 07:40:28;;;;;;;14.23;2.95;;;;;;;10.46;80.81;102698.38;5034053;28;20053;-74
2023/05/17 07:42:53;;;;;;;11.35;2.53;;;;;;;10.28;79.47;102696.47;5044099;28;20085;-75
2023/05/17 07:45:18;;;;;;;14.43;2.30;;;;;;;10.05;84.63;102671.94;5047402;28;20076;-74
2023/05/17 07:47:44;;;;;;;12.80;2.45;;;;;;;10.09;81.97;102699.78;5039889;28;20053;-74
2023/05/17 07:50:09;;;;;;;12.13;2.55;;;;;;;10.13;89.34;102706.75;5034991;28;20355;-75
2023/05/17 07:52:35;;;;;;;12.70;2.65;;;;;;;10.23;88.06;102699.88;5038046;28;20040;-75
2023/05/17 07:55:00;;;;;;;13.18;2.47;;;;;;;10.56;83.14;102704.47;5033744;28;20025;-74
2023/05/17 07:57:26;;;;;;;12.82;3.03;;;;;;;10.81;79.23;102702.91;5033666;28;20057;-74
2023/05/17 07:59:51;;;;;;;11.48;2.72;;;;;;;11.12;75.88;102703.91;5033269;28;20032;-74
2023/05/17 08:02:19;;;;;;;16.98;2.63;;;;;;;11.41;75.80;102706.63;5045058;28;20112;-75
2023/05/17 08:04:44;;;;;;;9.52;1.90;;;;;;;11.83;68.99;102710.16;5049552;28;20503;-74
2023/05/17 08:07:10;;;;;;;12.00;2.78;;;;;;;12.27;70.56;102708.50;5039543;28;20033;-75
2023/05/17 08:09:35;;;;;;;10.60;2.40;;;;;;;12.68;64.82;102699.69;5034248;28;20026;-75
2023/05/17 08:12:00;;;;;;;10.00;2.10;;;;;;;13.26;61.75;102710.84;5034271;28;20029;-75
2023/05/17 08:14:26;;;;;;;11.77;2.35;;;;;;;13.77;67.32;102700.06;5032842;28;20026;-75
2023/05/17 08:16:51;;;;;;;12.00;2.20;;;;;;;14.05;57.60;102700.72;5042705;28;20033;-75
2023/05/17 08:19:16;;;;;;;9.40;2.20;;;;;;;14.28;56.86;102701.38;5041947;28;20025;-75
2023/05/17 08:21:42;;;;;;;7.18;2.13;;;;;;;14.52;55.54;102704.69;5039885;28;20021;-75
2023/05/17 08:24:08;;;;;;;9.73;2.22;;;;;;;14.60;54.67;102704.59;5040438;28;20393;-75
2023/05/17 08:26:34;;;;;;;11.35;2.30;;;;;;;14.74;56.91;102703.56;5047001;28;20034;-74
2023/05/17 08:29:01;;;;;;;10.82;2.80;;;;;;;14.75;58.40;102713.19;5041301;28;20479;-75
2023/05/17 08:31:27;;;;;;;13.40;3.33;;;;;;;14.58;58.34;102712.47;5038637;28;20049;-75
2023/05/17 08:33:52;;;;;;;13.85;2.92;;;;;;;14.66;56.90;102713.28;5035101;28;20508;-75
2023/05/17 08:36:17;;;;;;;4.75;1.88;;;;;;;14.74;57.73;102703.56;5040268;28;20075;-75
2023/05/17 08:38:43;;;;;;;12.27;2.53;;;;;;;14.88;54.28;102715.69;5051182;28;20037;-75
2023/05/17 08:41:08;;;;;;;9.57;2.20;;;;;;;14.71;51.03;102708.88;5036123;28;20067;-75
2023/05/17 08:43:34;;;;;;;9.82;2.33;;;;;;;14.52;51.00;102717.81;5033299;28;20025;-75
2023/05/17 08:46:00;;;;;;;9.18;2.08;;;;;;;14.42;51.89;102716.09;5034486;28;20022;-75
2023/05/17 08:48:26;;;;;;;7.75;2.30;;;;;;;14.33;51.68;102710.97;5043784;28;20031;-75
2023/05/17 08:50:53;;;;;;;10.93;2.10;;;;;;;14.23;50.81;102713.69;5036713;28;20109;-75
2023/05/17 08:53:18;;;;;;;9.38;2.13;;;;;;;14.16;53.55;102719.88;5030006;28;20025;-75
2023/05/17 08:55:48;;;;;;;10.35;2.13;;;;;;;14.05;53.35;102713.81;5033330;28;20083;-75
2023/05/17 08:58:18;;;;;;;9.68;2.05;;;;;;;14.08;55.12;102724.28;5046941;28;20039;-75
2023/05/17 09:00:45;;;;;;;11.98;2.30;;;;;;;13.94;54.76;102694.69;5036459;28;20029;-75
2023/05/17 09:03:16;;;;;;;8.60;2.40;;;;;;;14.14;55.41;102719.00;5039786;28;20035;-74
2023/05/17 09:05:42;;;;;;;6.00;1.90;;;;;;;13.97;50.63;102719.13;5036191;28;20025;-75
2023/05/17 09:08:07;;;;;;;9.30;2.53;;;;;;;13.89;52.60;102706.97;5035773;28;20098;-75
2023/05/17 09:10:32;;;;;;;9.45;2.40;;;;;;;13.94;50.37;102711.28;5041413;28;20033;-75
2023/05/17 09:12:58;;;;;;;10.88;2.55;;;;;;;13.96;51.45;102703.41;5034299;28;20456;-75
2023/05/17 09:15:25;;;;;;;6.95;1.98;;;;;;;14.16;52.49;102713.72;5048272;28;20088;-75
2023/05/17 09:17:56;;;;;;;9.90;2.33;;;;;;;14.25;52.36;102717.13;5036050;28;20488;-75
2023/05/17 09:20:35;;;;;;;8.73;2.15;;;;;;;14.17;50.44;102711.09;5034931;28;20026;-75
2023/05/17 09:23:03;;;;;;;7.03;2.22;;;;;;;14.13;49.82;102709.41;5035078;28;20038;-75
2023/05/17 09:25:30;;;;;;;12.45;2.13;;;;;;;14.10;50.16;102722.53;5032093;28;20120;-75
2023/05/17 09:27:59;;;;;;;8.48;1.83;;;;;;;14.15;50.52;102717.25;5035681;28;20111;-75
2023/05/17 09:30:29;;;;;;;8.30;2.05;;;;;;;14.19;49.61;102711.97;5036154;28;20526;-74
2023/05/17 09:32:56;;;;;;;10.20;2.30;;;;;;;14.39;52.13;102716.16;5033129;28;20060;-77
2023/05/17 09:35:31;;;;;;;9.98;2.45;;;;;;;14.61;51.11;102716.84;5031392;28;20030;-74
2023/05/17 09:38:03;;;;;;;7.15;2.00;;;;;;;14.77;51.51;102715.78;5035116;28;20390;-76
2023/05/17 09:40:29;;;;;;;9.52;2.35;;;;;;;15.00;48.14;102712.88;5027077;28;20041;-75
2023/05/17 09:42:54;;;;;;;7.18;1.83;;;;;;;15.08;48.31;102705.81;5032920;28;20108;-75
2023/05/17 09:45:24;;;;;;;7.35;2.22;;;;;;;14.89;48.03;102706.91;5032907;28;20053;-75
2023/05/17 09:47:50;;;;;;;9.27;2.15;;;;;;;14.91;51.46;102697.25;5035067;28;20775;-75
2023/05/17 09:50:18;;;;;;;7.00;1.70;;;;;;;14.94;47.88;102710.34;5037897;28;20037;-75
2023/05/17 09:52:43;;;;;;;10.98;2.72;;;;;;;14.88;48.79;102698.16;5035298;28;20025;-75
2023/05/17 09:55:10;;;;;;;8.48;2.20;;;;;;;14.96;54.13;102706.81;5027775;28;20021;-75
2023/05/17 09:57:37;;;;;;;9.77;3.03;;;;;;;14.63;50.84;102707.19;5026274;28;20026;-83
2023/05/17 10:00:11;;;;;;;11.85;2.63;;;;;;;14.24;50.84;102727.66;5042454;28;20036;-82
2023/05/17 10:02:37;;;;;;;7.30;2.03;;;;;;;14.05;50.46;102717.31;5036414;28;20046;-77
2023/05/17 10:05:04;;;;;;;10.82;2.50;;;;;;;14.31;51.88;102725.84;5034372;28;20029;-77
2023/05/17 10:07:30;;;;;;;8.23;2.42;;;;;;;14.61;51.95;102716.84;5022527;28;20030;-77
2023/05/17 10:09:57;;;;;;;8.18;2.17;;;;;;;15.03;51.99;102710.22;5030457;28;20072;-76
2023/05/17 10:12:24;;;;;;;11.27;2.95;;;;;;;15.43;47.94;102696.56;5031279;28;20444;-76
2023/05/17 10:14:51;;;;;;;5.38;1.80;;;;;;;15.86;45.12;102715.25;5030853;28;20026;-77
2023/05/17 10:17:18;;;;;;;8.43;1.90;;;;;;;16.08;48.78;102721.00;5030756;28;20036;-77
2023/05/17 10:19:44;;;;;;;7.07;2.25;;;;;;;16.26;46.94;102714.56;5028954;28;20033;-76
2023/05/17 10:22:11;;;;;;;9.02;1.80;;;;;;;16.45;45.78;102720.38;5034448;28;20029;-77
2023/05/17 10:24:36;;;;;;;7.63;1.85;;;;;;;16.61;46.71;102711.31;5035384;28;20033;-77
2023/05/17 10:27:02;;;;;;;6.95;2.10;;;;;;;16.63;46.32;102706.00;5032071;28;20033;-75
2023/05/17 10:29:30;;;;;;;10.60;1.98;;;;;;;16.77;47.71;102692.56;5029704;28;20385;-76
2023/05/17 10:31:57;;;;;;;11.65;2.17;;;;;;;17.16;45.30;102708.47;5030034;28;20033;-77
2023/05/17 10:34:24;;;;;;;10.45;2.55;;;;;;;17.45;42.79;102700.78;5027730;28;20029;-75
2023/05/17 10:36:51;;;;;;;25.13;3.90;;;;;;;17.57;45.65;102698.78;5035480;28;20025;-75
2023/05/17 10:39:17;;;;;;;8.30;1.90;;;;;;;17.51;45.76;102700.66;5031093;28;20033;-75
2023/05/17 10:41:45;;;;;;;6.72;1.95;;;;;;;17.48;46.92;102694.56;5033484;28;20021;-79
2023/05/17 10:44:13;;;;;;;7.82;1.67;;;;;;;17.13;43.79;102696.22;5019626;28;20046;-75
2023/05/17 10:46:39;;;;;;;9.25;2.35;;;;;;;16.32;44.71;102688.16;5018189;28;20026;-75
2023/05/17 10:49:04;;;;;;;11.15;1.98;;;;;;;15.85;45.80;102702.09;5010010;28;20024;-75
2023/05/17 10:51:32;;;;;;;9.10;2.30;;;;;;;15.87;45.28;102705.59;5028714;28;20365;-76
2023/05/17 10:54:09;;;;;;;10.40;2.50;;;;;;;15.94;47.19;102712.47;5029427;28;20041;-74
2023/05/17 10:56:46;;;;;;;7.60;1.92;;;;;;;15.81;43.96;102698.66;5031689;28;20049;-74
2023/05/17 10:59:24;;;;;;;12.38;2.33;;;;;;;16.09;47.85;102690.31;5034817;28;20496;-74
2023/05/17 11:02:02;;;;;;;9.30;2.38;;;;;;;16.43;47.58;102680.03;5032528;28;20037;-73
2023/05/17 11:04:36;;;;;;;9.02;1.77;;;;;;;16.68;46.30;102687.47;5022683;28;20018;-73
2023/05/17 11:07:26;;;;;;;5.55;1.85;;;;;;;16.73;43.46;102685.59;5034701;28;20122;-73
2023/05/17 11:10:09;;;;;;;5.57;1.88;;;;;;;16.73;41.38;102682.97;5033380;28;20465;-73
2023/05/17 11:12:48;;;;;;;7.32;1.80;;;;;;;16.75;41.98;102686.50;5031497;28;20112;-73
2023/05/17 11:15:15;;;;;;;6.07;2.00;;;;;;;16.81;42.87;102687.25;5027692;28;20026;-73
2023/05/17 11:17:43;;;;;;;4.70;1.55;;;;;;;17.01;43.42;102681.56;5031309;28;20028;-73